Airfield :
LOGIN :

Register | Disclaimer

   EN    FR    IT 

 










Legend :    VFR   Marginal VFR   IFR   Intensive IFR   Very Intensive IFR
Visi :
Ceiling :
>= 8 km
>= 3000ft
5 to 8 km
1000 to 3000 ft
1500m to 5 km
500 to 1000 ft
800 to 1500m
200 to 500 ft
< 800m
< 200 ft
Symbols :   Thunderstorms  Fog  Heavy snow  Heavy precipitations  Wind > 20 kt
SIGMETs :     Misc.  Thunderstorms  Icing  Turbulence  Mountain Waves  Volcanic Ashes







- Airport Elevation : 348 ft
- IATA code : LDV
- Download approach charts


LFRJ - Landivisiau

CURRENT METAR :
  • 201500Z AUTO 21013KT 9999 BKN017 OVC023 17/14 Q1025

EXPIRED METARs :
  • 201430Z AUTO 21014KT 9999 BKN018 OVC027 17/13 Q1025
  • 201400Z AUTO 21015KT 9999 BKN020 OVC028 17/13 Q1025
  • 201330Z AUTO 21017KT 9999 -RA SCT020 BKN032 OVC039 17/13 Q1025
  • 201300Z AUTO 21017KT 9999 FEW023 OVC039 18/12 Q1025
  • 201230Z AUTO 20015KT 9999 FEW026 BKN034 BKN040 18/12 Q1025

Expired Forecast.
No reported NOTAMs for that airfield.



MET'MAP, your aeronautical weather chart ! - Copyright ORBIFLY December 2007 - Disclaimer

ORBIFLY MET'MAP TEAM :

Programming & Development : Alexandra Zaïnal
Concept & Development : Baudouin d'Aumeries
Co-Development & Prog : Marc-Olivier Méhu
Technical & hardware support : Manuel Goepfert

Contact : metmap@orbifly.com




SOURCES & CREDITS :

   NOAA